createdAt,value
2023-02-11T06:18:56.777Z,20.24
2023-02-11T06:28:56.885Z,20.63
2023-02-11T06:38:56.915Z,20.53
2023-02-11T06:48:56.831Z,21.89
2023-02-11T06:58:56.882Z,22.16
2023-02-11T07:08:56.890Z,20.43
2023-02-11T07:18:56.869Z,19.81
2023-02-11T07:28:56.975Z,22.09
2023-02-11T07:38:57.095Z,23.82
2023-02-11T07:48:57.005Z,21.14
2023-02-11T07:58:56.988Z,23.20
2023-02-11T08:08:56.968Z,24.45
2023-02-11T08:18:56.972Z,21.11
2023-02-11T08:28:56.954Z,21.38
2023-02-11T08:39:05.779Z,24.44
2023-02-11T08:48:57.125Z,24.42
2023-02-11T08:58:57.049Z,18.79
2023-02-11T09:08:57.017Z,21.78
2023-02-11T09:18:57.104Z,20.47
2023-02-11T09:28:57.024Z,22.74
2023-02-11T09:38:57.046Z,20.06
2023-02-11T09:48:57.075Z,20.69
2023-02-11T09:58:57.155Z,21.71
2023-02-11T10:08:57.109Z,20.27
2023-02-11T10:18:57.152Z,22.46
2023-02-11T10:28:57.210Z,24.12
2023-02-11T10:38:57.262Z,27.02
2023-02-11T10:48:57.323Z,21.11
2023-02-11T10:58:57.301Z,19.40
2023-02-11T11:08:57.309Z,20.40
2023-02-11T11:18:57.157Z,22.29
2023-02-11T11:28:57.333Z,20.49
2023-02-11T11:38:57.325Z,16.89
2023-02-11T11:48:57.182Z,19.24
2023-02-11T11:58:57.345Z,17.70
2023-02-11T12:08:57.389Z,19.49
2023-02-11T12:18:57.352Z,20.96
2023-02-11T12:28:57.381Z,17.64
2023-02-11T12:38:57.386Z,15.71
2023-02-11T12:48:57.426Z,15.85
2023-02-11T12:58:57.444Z,15.24
2023-02-11T13:08:57.278Z,16.90
2023-02-11T13:18:57.465Z,17.31
2023-02-11T13:28:57.392Z,17.95
2023-02-11T13:38:57.381Z,17.17
2023-02-11T13:48:57.437Z,18.49
2023-02-11T13:58:59.086Z,17.96
2023-02-11T14:08:57.357Z,14.16
2023-02-11T14:18:57.428Z,16.17
2023-02-11T14:28:57.588Z,18.13
2023-02-11T14:38:57.596Z,16.33
2023-02-11T14:48:57.446Z,16.46
2023-02-11T14:58:57.408Z,17.21
2023-02-11T15:08:57.491Z,14.52
2023-02-11T15:18:57.528Z,16.56
2023-02-11T15:28:57.576Z,16.30
2023-02-11T15:38:57.576Z,15.44
2023-02-11T15:48:57.527Z,19.01
2023-02-11T15:58:57.712Z,16.48
2023-02-11T16:08:57.639Z,14.46
2023-02-11T16:19:04.593Z,14.91
2023-02-11T16:28:57.760Z,14.83
2023-02-11T16:38:57.626Z,16.99
2023-02-11T16:48:57.532Z,16.26
2023-02-11T16:58:57.597Z,13.86
2023-02-11T17:08:57.586Z,15.29
2023-02-11T17:18:57.710Z,12.67
2023-02-11T17:28:57.611Z,12.38
2023-02-11T17:38:57.548Z,13.48
2023-02-11T17:48:57.839Z,16.15
2023-02-11T17:58:57.757Z,14.38
2023-02-11T18:08:57.951Z,12.84
2023-02-11T18:18:57.638Z,13.38
2023-02-11T18:28:57.685Z,15.42
2023-02-11T18:38:57.533Z,14.06
2023-02-11T18:48:57.766Z,11.27
2023-02-11T18:58:57.698Z,14.38
2023-02-11T19:08:59.684Z,13.05
2023-02-11T19:18:57.734Z,10.67
